Chardon, Ohio
Current Conditions -  °F | °C
As of 7:15 PM on Wednesday 28 Jan 2015 (Local Time) from KLNN Reporting Station
Clear Clear  
Wind Chill: 16°   Ceiling: Unl
Heat Index: 22°   Visibility: 10mi
Dew Point: 16°   Wind: 5mph
Humidity: 78%   Direction: 120°ESE
Pressure: 30.28"   Gusts: NA
Location:  41.61°N, 81.15°W
Report Text: KLNN 290015Z AUTO 12004KT 10SM CLR M05/M09 A3028 RMK AO1 T10551088
Loading
Personal Weather Stations






























Interactive Weather Map New forecast layout! Learn more

10-Day Weather Forecast

Advertisements
Track Severe Weather on mobile